createdAt,value
2018-08-10T00:01:52.983Z,4.70
2018-08-10T00:04:20.263Z,4.63
2018-08-10T00:06:47.621Z,4.43
2018-08-10T00:09:14.918Z,4.37
2018-08-10T00:11:42.236Z,4.40
2018-08-10T00:14:09.550Z,4.47
2018-08-10T00:16:36.884Z,4.10
2018-08-10T00:20:07.304Z,4.07
2018-08-10T00:22:34.648Z,4.20
2018-08-10T00:25:01.974Z,3.60
2018-08-10T00:27:29.316Z,3.33
2018-08-10T00:29:56.648Z,3.47
2018-08-10T00:32:24.482Z,4.00
2018-08-10T00:34:51.877Z,3.33
2018-08-10T00:37:19.233Z,3.40
2018-08-10T00:39:46.575Z,3.40
2018-08-10T00:42:13.911Z,2.90
2018-08-10T00:44:41.230Z,3.00
2018-08-10T00:47:08.535Z,2.80
2018-08-10T00:49:35.855Z,3.20
2018-08-10T00:52:03.165Z,2.47
2018-08-10T00:57:04.322Z,2.80
2018-08-10T00:59:31.677Z,2.83
2018-08-10T01:01:59.018Z,3.10
2018-08-10T01:04:26.372Z,2.70
2018-08-10T01:06:53.725Z,3.93
2018-08-10T01:09:21.024Z,3.03
2018-08-10T01:11:48.386Z,2.90
2018-08-10T01:14:17.026Z,3.13
2018-08-10T01:16:46.997Z,3.57
2018-08-10T01:19:14.492Z,3.37
2018-08-10T01:21:41.872Z,3.43
2018-08-10T01:24:09.170Z,3.60
2018-08-10T01:26:36.456Z,3.30
2018-08-10T01:29:03.869Z,3.30
2018-08-10T01:31:31.177Z,3.17
2018-08-10T01:50:25.577Z,2.30
2018-08-10T01:52:52.899Z,2.83
2018-08-10T01:55:20.225Z,2.73
2018-08-10T01:57:47.499Z,2.90
2018-08-10T02:00:14.794Z,2.60
2018-08-10T02:02:42.081Z,2.20
2018-08-10T02:05:10.238Z,2.40
2018-08-10T02:07:38.794Z,2.57
2018-08-10T02:10:06.796Z,2.57
2018-08-10T02:12:34.097Z,2.33
2018-08-10T02:15:01.381Z,2.50
2018-08-10T02:17:28.719Z,2.50
2018-08-10T02:19:55.985Z,3.13
2018-08-10T02:22:23.236Z,2.53
2018-08-10T02:24:50.592Z,2.70
2018-08-10T02:27:17.825Z,2.77
2018-08-10T02:29:45.125Z,2.87
2018-08-10T02:32:12.417Z,2.77
2018-08-10T02:34:40.734Z,3.30
2018-08-10T02:37:08.039Z,3.37
2018-08-10T02:39:35.339Z,2.83
2018-08-10T02:42:02.647Z,3.20
2018-08-10T02:44:29.927Z,3.27
2018-08-10T02:46:57.270Z,2.80
2018-08-10T02:49:24.612Z,3.33
2018-08-10T02:51:51.915Z,2.90
2018-08-10T02:54:19.269Z,3.00
2018-08-10T02:56:47.568Z,2.30
2018-08-10T02:59:14.879Z,2.37
2018-08-10T03:01:42.190Z,2.30
2018-08-10T03:04:09.532Z,1.83
2018-08-10T03:06:36.837Z,2.00
2018-08-10T03:09:05.974Z,1.60
2018-08-10T03:11:33.271Z,1.80
2018-08-10T03:14:00.573Z,1.85
2018-08-10T03:16:27.870Z,1.83
2018-08-10T03:18:55.158Z,1.70
2018-08-10T03:21:22.938Z,1.80
2018-08-10T03:23:50.256Z,1.70
2018-08-10T03:26:17.537Z,1.70
2018-08-10T03:28:44.827Z,1.90
2018-08-10T03:31:12.123Z,1.70
2018-08-10T03:33:39.401Z,1.80
2018-08-10T03:36:06.766Z,2.00
2018-08-10T03:38:34.052Z,2.10
2018-08-10T03:41:01.361Z,1.60
2018-08-10T03:43:28.676Z,1.70
2018-08-10T03:45:55.940Z,1.70
2018-08-10T03:48:23.228Z,1.55
2018-08-10T03:50:50.542Z,2.02
2018-08-10T03:53:17.907Z,1.87
2018-08-10T03:55:45.183Z,1.90
2018-08-10T03:58:12.450Z,2.30
2018-08-10T04:00:39.770Z,1.90
2018-08-10T04:03:07.026Z,1.80
2018-08-10T04:05:34.319Z,1.90
2018-08-10T04:08:01.619Z,1.77
2018-08-10T04:10:28.949Z,1.92
2018-08-10T04:12:56.234Z,2.20
2018-08-10T04:15:23.518Z,2.47
2018-08-10T04:17:50.801Z,2.00
2018-08-10T04:20:18.095Z,2.17
2018-08-10T04:22:45.394Z,2.20
2018-08-10T04:25:12.700Z,2.27
2018-08-10T04:27:40.051Z,2.00
2018-08-10T04:30:08.141Z,2.50
2018-08-10T04:32:35.450Z,2.10
2018-08-10T04:35:02.862Z,2.57
2018-08-10T04:37:30.209Z,2.50
2018-08-10T04:39:57.458Z,2.50
2018-08-10T04:42:24.754Z,2.03
2018-08-10T04:44:52.027Z,2.50
2018-08-10T04:47:19.333Z,2.23
2018-08-10T04:49:46.599Z,2.10
2018-08-10T04:52:14.172Z,2.52
2018-08-10T04:54:41.592Z,2.30
2018-08-10T04:57:08.955Z,2.50
2018-08-10T04:59:36.350Z,2.05
2018-08-10T05:02:03.710Z,2.67
2018-08-10T05:04:30.954Z,2.50
2018-08-10T05:06:58.283Z,2.10
2018-08-10T05:09:25.639Z,2.67
2018-08-10T05:11:53.059Z,2.47
2018-08-10T05:14:20.357Z,2.50
2018-08-10T05:16:48.861Z,3.30
2018-08-10T05:19:16.279Z,3.60
2018-08-10T05:21:43.580Z,3.60
2018-08-10T05:24:10.897Z,4.50
2018-08-10T05:26:38.183Z,3.50
2018-08-10T05:29:05.717Z,3.70
2018-08-10T05:31:33.119Z,4.03
2018-08-10T05:34:00.407Z,3.83
2018-08-10T05:36:27.693Z,3.80
2018-08-10T05:38:56.063Z,3.93
2018-08-10T05:41:23.387Z,3.10
2018-08-10T05:43:50.666Z,3.63
2018-08-10T05:46:18.085Z,3.77
2018-08-10T05:48:45.349Z,3.40
2018-08-10T05:51:14.157Z,3.33
2018-08-10T05:53:41.985Z,3.20
2018-08-10T05:56:09.600Z,3.10
2018-08-10T05:58:36.980Z,3.30
2018-08-10T06:01:04.830Z,3.47
2018-08-10T06:03:32.212Z,3.20
2018-08-10T06:05:59.482Z,2.97
2018-08-10T06:08:26.783Z,3.00
2018-08-10T06:10:54.075Z,3.00
2018-08-10T06:13:21.379Z,2.90
2018-08-10T06:15:48.698Z,2.60
2018-08-10T06:18:15.960Z,2.60
2018-08-10T06:20:43.419Z,3.00
2018-08-10T06:23:10.754Z,2.60
2018-08-10T06:25:38.121Z,2.40
2018-08-10T06:28:05.453Z,3.10
2018-08-10T06:30:33.475Z,2.53
2018-08-10T06:33:00.753Z,3.20
2018-08-10T06:35:28.132Z,3.00
2018-08-10T06:37:56.804Z,2.80
2018-08-10T06:40:27.338Z,2.80
2018-08-10T06:42:55.590Z,3.20
2018-08-10T06:45:22.920Z,2.60
2018-08-10T06:47:59.643Z,3.27
2018-08-10T06:50:27.165Z,3.23
2018-08-10T06:52:54.593Z,2.93
2018-08-10T06:55:21.923Z,3.40
2018-08-10T06:57:49.255Z,3.33
2018-08-10T07:00:18.032Z,2.83
2018-08-10T07:02:46.312Z,2.83
2018-08-10T07:05:13.610Z,3.27
2018-08-10T07:07:41.028Z,2.60
2018-08-10T07:10:08.843Z,2.77
2018-08-10T07:12:36.204Z,3.07
2018-08-10T07:15:03.710Z,2.90
2018-08-10T07:17:31.019Z,3.17
2018-08-10T07:19:58.808Z,2.93
2018-08-10T07:22:26.467Z,2.80
2018-08-10T07:24:54.007Z,2.73
2018-08-10T07:27:21.321Z,2.47
2018-08-10T07:29:48.644Z,3.10
2018-08-10T07:32:15.957Z,3.10
2018-08-10T07:34:43.277Z,2.93
2018-08-10T07:37:10.609Z,3.07
2018-08-10T07:39:37.957Z,3.10
2018-08-10T07:42:05.330Z,3.00
2018-08-10T07:44:32.626Z,3.07
2018-08-10T07:47:00.018Z,3.47
2018-08-10T07:49:27.327Z,3.10
2018-08-10T07:51:54.700Z,3.63
2018-08-10T07:54:22.052Z,3.23
2018-08-10T07:56:49.384Z,3.30
2018-08-10T07:59:16.783Z,3.73
2018-08-10T08:01:44.135Z,3.10
2018-08-10T08:04:11.455Z,3.33
2018-08-10T08:06:38.766Z,3.27
2018-08-10T08:09:07.265Z,3.17
2018-08-10T08:11:34.824Z,3.30
2018-08-10T08:14:02.152Z,3.13
2018-08-10T08:16:29.764Z,3.63
2018-08-10T08:18:57.066Z,3.27
2018-08-10T08:21:24.462Z,3.23
2018-08-10T08:23:51.879Z,3.00
2018-08-10T08:26:19.310Z,3.23
2018-08-10T08:28:47.650Z,3.20
2018-08-10T08:31:14.982Z,3.00
2018-08-10T08:33:47.911Z,3.70
2018-08-10T08:36:15.988Z,2.80
2018-08-10T08:38:49.085Z,3.87
2018-08-10T08:41:16.520Z,2.80
2018-08-10T08:45:57.209Z,3.30
2018-08-10T08:48:25.919Z,3.33
2018-08-10T08:50:54.834Z,2.90
2018-08-10T08:53:23.241Z,3.23
2018-08-10T08:55:52.502Z,3.23
2018-08-10T08:58:19.914Z,3.23
2018-08-10T09:00:47.258Z,2.67
2018-08-10T09:03:22.040Z,3.77
2018-08-10T09:05:49.451Z,3.23
2018-08-10T09:08:17.858Z,2.77
2018-08-10T09:10:45.247Z,3.40
2018-08-10T09:13:13.153Z,3.20
2018-08-10T09:15:40.700Z,3.10
2018-08-10T09:18:48.189Z,3.20
2018-08-10T09:21:15.593Z,3.17
2018-08-10T09:23:42.943Z,3.13
2018-08-10T09:26:10.322Z,2.50
2018-08-10T09:28:37.688Z,3.93
2018-08-10T09:31:05.423Z,3.37
2018-08-10T09:33:33.125Z,3.67
2018-08-10T09:36:00.506Z,2.83
2018-08-10T09:38:27.849Z,3.33
2018-08-10T09:40:55.303Z,3.43
2018-08-10T09:43:22.575Z,3.20
2018-08-10T09:45:49.979Z,3.17
2018-08-10T09:48:17.353Z,3.10
2018-08-10T09:50:44.676Z,3.37
2018-08-10T09:53:12.063Z,3.33
2018-08-10T09:55:39.675Z,3.37
2018-08-10T09:58:09.086Z,3.40
2018-08-10T10:00:42.340Z,2.97
2018-08-10T10:03:19.941Z,2.93
2018-08-10T10:05:48.199Z,3.00
2018-08-10T10:08:16.049Z,3.10
2018-08-10T10:10:43.387Z,3.40
2018-08-10T10:13:11.700Z,3.47
2018-08-10T10:15:39.104Z,3.33
2018-08-10T10:18:07.675Z,3.30
2018-08-10T10:20:35.142Z,3.60
2018-08-10T10:23:02.588Z,3.30
2018-08-10T10:25:29.851Z,3.27
2018-08-10T10:27:57.392Z,3.30
2018-08-10T10:30:24.853Z,3.87
2018-08-10T10:32:52.275Z,3.67
2018-08-10T10:35:19.578Z,3.43
2018-08-10T10:37:46.903Z,3.50
2018-08-10T10:40:14.267Z,4.07
2018-08-10T10:42:41.807Z,3.70
2018-08-10T10:45:09.911Z,3.80
2018-08-10T10:47:37.260Z,3.40
2018-08-10T10:50:05.212Z,3.60
2018-08-10T10:52:32.504Z,3.10
2018-08-10T10:55:01.672Z,4.20
2018-08-10T10:57:29.228Z,3.60
2018-08-10T10:59:57.451Z,3.70
2018-08-10T11:02:25.168Z,3.50
2018-08-10T11:04:52.940Z,3.83
2018-08-10T11:07:20.767Z,3.93
2018-08-10T11:09:48.508Z,3.60
2018-08-10T11:12:16.118Z,3.50
2018-08-10T11:14:45.363Z,3.60
2018-08-10T11:17:12.980Z,3.50
2018-08-10T11:19:40.329Z,3.40
2018-08-10T11:22:08.307Z,3.47
2018-08-10T11:24:35.785Z,3.27
2018-08-10T11:27:03.114Z,3.73
2018-08-10T11:29:30.571Z,2.90
2018-08-10T11:31:58.065Z,3.20
2018-08-10T11:34:25.639Z,3.70
2018-08-10T11:36:52.952Z,3.37
2018-08-10T11:39:20.502Z,3.63
2018-08-10T11:41:47.885Z,3.37
2018-08-10T11:44:15.186Z,3.60
2018-08-10T11:46:42.491Z,3.67
2018-08-10T11:49:09.811Z,3.50
2018-08-10T11:51:37.307Z,3.33
2018-08-10T11:54:04.667Z,3.40
2018-08-10T11:56:33.776Z,3.37
2018-08-10T11:59:01.122Z,3.33
2018-08-10T12:01:28.422Z,3.63
2018-08-10T12:03:55.932Z,3.20
2018-08-10T12:06:23.401Z,3.23
2018-08-10T12:08:50.876Z,3.20
2018-08-10T12:11:18.413Z,3.87
2018-08-10T12:13:45.959Z,2.53
2018-08-10T12:16:13.567Z,2.73
2018-08-10T12:18:41.041Z,3.27
2018-08-10T12:21:09.370Z,3.23
2018-08-10T12:23:37.625Z,3.30
2018-08-10T12:26:04.977Z,3.50
2018-08-10T12:28:32.630Z,3.20
2018-08-10T12:31:01.567Z,3.73
2018-08-10T12:33:29.439Z,2.80
2018-08-10T12:35:57.112Z,3.60
2018-08-10T12:38:24.496Z,3.57
2018-08-10T12:40:51.895Z,3.27
2018-08-10T12:43:19.446Z,3.00
2018-08-10T12:45:46.758Z,3.53
2018-08-10T12:48:14.291Z,3.10
2018-08-10T12:50:44.329Z,3.37
2018-08-10T12:53:12.867Z,3.27
2018-08-10T12:55:40.311Z,2.70
2018-08-10T12:58:07.667Z,2.80
2018-08-10T13:00:35.049Z,2.80
2018-08-10T13:03:02.648Z,2.90
2018-08-10T13:05:29.977Z,3.00
2018-08-10T13:07:57.317Z,3.03
2018-08-10T13:10:25.179Z,3.50
2018-08-10T13:12:54.581Z,3.10
2018-08-10T13:15:23.055Z,3.17
2018-08-10T13:17:53.957Z,3.27
2018-08-10T13:20:23.302Z,3.10
2018-08-10T13:22:53.445Z,3.20
2018-08-10T13:25:21.559Z,3.33
2018-08-10T13:27:51.733Z,3.30
2018-08-10T13:30:21.922Z,3.67
2018-08-10T13:32:51.387Z,3.10
2018-08-10T13:35:21.999Z,3.37
2018-08-10T13:37:50.050Z,3.33
2018-08-10T13:40:20.288Z,3.17
2018-08-10T13:42:49.943Z,3.40
2018-08-10T13:45:20.416Z,3.30
2018-08-10T13:47:50.974Z,2.83
2018-08-10T13:50:21.431Z,3.23
2018-08-10T13:52:53.415Z,3.50
2018-08-10T13:55:23.974Z,3.87
2018-08-10T13:57:54.149Z,3.50
2018-08-10T14:00:27.241Z,3.47
2018-08-10T14:02:58.486Z,3.77
2018-08-10T14:05:28.648Z,3.70
2018-08-10T14:07:58.107Z,4.07
2018-08-10T14:10:28.836Z,4.10
2018-08-10T14:12:56.961Z,3.33
2018-08-10T14:15:29.747Z,3.53
2018-08-10T14:17:58.411Z,3.17
2018-08-10T14:20:28.220Z,3.77
2018-08-10T14:22:59.983Z,3.70
2018-08-10T14:25:29.715Z,3.60
2018-08-10T14:27:59.853Z,3.40
2018-08-10T14:30:27.874Z,3.53
2018-08-10T14:32:55.979Z,3.60
2018-08-10T14:35:24.075Z,3.70
2018-08-10T14:37:51.974Z,3.33
2018-08-10T14:40:20.438Z,3.53
2018-08-10T14:42:49.323Z,3.00
2018-08-10T14:45:17.452Z,3.47
2018-08-10T14:47:45.339Z,3.50
2018-08-10T14:50:14.311Z,3.10
2018-08-10T14:52:42.583Z,3.03
2018-08-10T14:55:13.198Z,2.80
2018-08-10T14:57:42.447Z,3.20
2018-08-10T15:00:14.303Z,3.10
2018-08-10T15:02:42.267Z,3.23
2018-08-10T15:05:10.678Z,3.27
2018-08-10T15:07:39.018Z,3.20
2018-08-10T15:10:07.519Z,2.90
2018-08-10T15:12:36.023Z,3.60
2018-08-10T15:15:03.783Z,3.73
2018-08-10T15:17:32.519Z,3.07
2018-08-10T15:20:00.129Z,3.17
2018-08-10T15:22:27.936Z,3.23
2018-08-10T15:24:56.313Z,3.17
2018-08-10T15:27:24.662Z,2.77
2018-08-10T15:29:52.700Z,3.00
2018-08-10T15:32:20.069Z,3.10
2018-08-10T15:34:48.599Z,3.17
2018-08-10T15:37:15.986Z,3.30
2018-08-10T15:39:44.708Z,3.00
2018-08-10T15:42:12.238Z,2.87
2018-08-10T15:44:40.526Z,3.30
2018-08-10T15:47:08.476Z,2.70
2018-08-10T15:49:38.814Z,3.00
2018-08-10T15:52:07.222Z,3.60
2018-08-10T15:54:34.633Z,2.90
2018-08-10T15:57:02.014Z,3.03
2018-08-10T15:59:29.346Z,3.03
2018-08-10T16:01:56.817Z,2.80
2018-08-10T16:04:24.127Z,2.97
2018-08-10T16:06:51.684Z,3.80
2018-08-10T16:09:19.794Z,2.70
2018-08-10T16:11:47.083Z,2.87
2018-08-10T16:14:14.352Z,3.07
2018-08-10T16:16:41.608Z,2.73
2018-08-10T16:19:08.983Z,3.70
2018-08-10T16:21:36.413Z,2.97
2018-08-10T16:24:03.788Z,3.00
2018-08-10T16:26:31.081Z,3.33
2018-08-10T16:28:58.340Z,2.90
2018-08-10T16:31:25.928Z,3.13
2018-08-10T16:33:53.332Z,3.90
2018-08-10T16:36:20.833Z,3.50
2018-08-10T16:38:50.769Z,2.87
2018-08-10T16:41:18.261Z,3.10
2018-08-10T16:43:47.379Z,3.23
2018-08-10T16:46:15.759Z,2.40
2018-08-10T16:48:46.041Z,2.70
2018-08-10T16:51:14.878Z,2.50
2018-08-10T16:53:44.301Z,2.70
2018-08-10T16:56:12.916Z,3.20
2018-08-10T16:58:40.703Z,2.60
2018-08-10T17:01:09.881Z,2.50
2018-08-10T17:03:37.989Z,3.00
2018-08-10T17:06:06.480Z,2.93
2018-08-10T17:08:35.694Z,3.17
2018-08-10T17:11:05.455Z,3.03
2018-08-10T17:13:34.069Z,3.20
2018-08-10T17:16:05.292Z,3.00
2018-08-10T17:18:33.357Z,3.20
2018-08-10T17:21:00.728Z,3.10
2018-08-10T17:23:29.090Z,2.70
2018-08-10T17:25:58.330Z,2.87
2018-08-10T17:28:29.454Z,2.60
2018-08-10T17:30:57.284Z,3.20
2018-08-10T17:33:29.256Z,2.67
2018-08-10T17:35:57.209Z,3.60
2018-08-10T17:38:27.260Z,3.30
2018-08-10T17:40:59.789Z,2.87
2018-08-10T17:43:27.393Z,2.90
2018-08-10T17:45:55.515Z,2.70
2018-08-10T17:48:26.719Z,2.90
2018-08-10T17:50:55.789Z,2.93
2018-08-10T17:53:24.308Z,3.00
2018-08-10T17:55:52.468Z,2.70
2018-08-10T17:58:21.338Z,2.90
2018-08-10T18:00:49.524Z,3.40
2018-08-10T18:03:20.611Z,2.90
2018-08-10T18:05:49.676Z,2.87
2018-08-10T18:08:21.490Z,2.70
2018-08-10T18:10:50.040Z,2.37
2018-08-10T18:13:20.503Z,2.50
2018-08-10T18:15:48.654Z,2.53
2018-08-10T18:18:16.612Z,2.87
2018-08-10T18:20:44.535Z,2.70
2018-08-10T18:23:12.855Z,2.43
2018-08-10T18:25:42.499Z,3.57
2018-08-10T18:28:12.205Z,2.67
2018-08-10T18:30:39.554Z,3.20
2018-08-10T18:33:06.869Z,3.07
2018-08-10T18:35:35.242Z,2.93
2018-08-10T18:38:03.142Z,3.10
2018-08-10T18:40:31.156Z,2.50
2018-08-10T18:42:58.599Z,2.60
2018-08-10T18:45:25.876Z,3.33
2018-08-10T18:47:54.053Z,2.80
2018-08-10T18:50:23.553Z,3.13
2018-08-10T18:52:51.103Z,3.73
2018-08-10T18:55:20.064Z,2.57
2018-08-10T18:57:48.079Z,3.00
2018-08-10T19:00:19.933Z,2.93
2018-08-10T19:02:47.910Z,2.73
2018-08-10T19:05:16.466Z,3.13
2018-08-10T19:07:44.620Z,3.00
2018-08-10T19:10:13.031Z,3.37
2018-08-10T19:12:40.453Z,2.77
2018-08-10T19:15:09.230Z,2.93
2018-08-10T19:17:36.845Z,3.10
2018-08-10T19:20:04.220Z,2.77
2018-08-10T19:22:31.737Z,3.30
2018-08-10T19:24:59.058Z,3.40
2018-08-10T19:27:26.278Z,4.47
2018-08-10T19:29:53.486Z,13.90
2018-08-10T19:32:20.779Z,8.73
2018-08-10T19:34:48.039Z,4.77
2018-08-10T19:37:15.316Z,3.43
2018-08-10T19:39:42.621Z,3.50
2018-08-10T19:42:09.951Z,3.37
2018-08-10T19:44:37.758Z,3.30
2018-08-10T19:47:05.165Z,3.10
2018-08-10T19:49:32.552Z,3.33
2018-08-10T19:51:59.998Z,3.70
2018-08-10T19:54:27.516Z,6.50
2018-08-10T19:56:54.956Z,7.10
2018-08-10T19:59:22.590Z,6.20
2018-08-10T20:01:50.972Z,18.57
2018-08-10T20:04:18.473Z,19.23
2018-08-10T20:06:45.859Z,18.50
2018-08-10T20:09:13.830Z,18.67
2018-08-10T20:11:41.411Z,27.67
2018-08-10T20:14:09.196Z,30.23
2018-08-10T20:16:36.564Z,31.67
2018-08-10T20:19:04.213Z,29.93
2018-08-10T20:21:31.637Z,38.77
2018-08-10T20:23:59.088Z,34.77
2018-08-10T20:26:26.371Z,24.13
2018-08-10T20:28:53.633Z,14.97
2018-08-10T20:31:20.956Z,9.63
2018-08-10T20:33:48.237Z,9.47
2018-08-10T20:36:15.452Z,6.90
2018-08-10T20:38:42.664Z,5.90
2018-08-10T20:41:09.952Z,6.00
2018-08-10T20:43:37.154Z,6.00
2018-08-10T20:46:04.566Z,5.50
2018-08-10T20:48:31.820Z,7.47
2018-08-10T20:50:59.049Z,10.07
2018-08-10T20:53:26.591Z,17.90
2018-08-10T20:55:53.934Z,17.67
2018-08-10T20:58:21.191Z,19.30
2018-08-10T21:00:49.213Z,18.80
2018-08-10T21:03:16.479Z,14.63
2018-08-10T21:05:43.727Z,14.10
2018-08-10T21:08:10.996Z,12.90
2018-08-10T21:10:38.255Z,10.47
2018-08-10T21:13:05.596Z,10.97
2018-08-10T21:15:32.827Z,10.53
2018-08-10T21:18:00.049Z,7.20
2018-08-10T21:20:29.186Z,5.90
2018-08-10T21:22:56.542Z,6.20
2018-08-10T21:25:23.759Z,6.60
2018-08-10T21:27:50.997Z,5.90
2018-08-10T21:30:22.075Z,4.63
2018-08-10T21:32:49.722Z,4.90
2018-08-10T21:35:17.079Z,5.20
2018-08-10T21:37:44.541Z,5.73
2018-08-10T21:40:11.915Z,4.87
2018-08-10T21:42:40.550Z,4.93
2018-08-10T21:45:08.376Z,4.23
2018-08-10T21:47:37.260Z,5.30
2018-08-10T21:50:05.512Z,4.67
2018-08-10T21:52:33.332Z,4.57
2018-08-10T21:55:02.148Z,4.10
2018-08-10T21:57:29.362Z,4.40
2018-08-10T21:59:56.592Z,4.60
2018-08-10T22:02:24.987Z,4.30
2018-08-10T22:04:52.226Z,4.63
2018-08-10T22:07:19.788Z,5.33
2018-08-10T22:09:47.083Z,4.83
2018-08-10T22:12:18.190Z,4.37
2018-08-10T22:14:51.075Z,4.45
2018-08-10T22:17:24.000Z,4.72
2018-08-10T22:19:51.257Z,4.30
2018-08-10T22:22:18.516Z,3.77
2018-08-10T22:24:45.825Z,3.90
2018-08-10T22:27:13.041Z,3.97
2018-08-10T22:29:40.278Z,3.47
2018-08-10T22:32:08.370Z,3.63
2018-08-10T22:34:35.699Z,3.73
2018-08-10T22:37:03.060Z,4.37
2018-08-10T22:39:30.271Z,3.90
2018-08-10T22:41:57.726Z,3.90
2018-08-10T22:44:25.064Z,3.77
2018-08-10T22:46:52.550Z,3.30
2018-08-10T22:49:19.839Z,3.60
2018-08-10T22:51:47.136Z,3.90
2018-08-10T22:54:14.343Z,4.20
2018-08-10T22:56:41.714Z,3.77
2018-08-10T22:59:08.926Z,3.50
2018-08-10T23:01:36.171Z,3.67
2018-08-10T23:04:03.423Z,4.20
2018-08-10T23:06:30.715Z,3.75
2018-08-10T23:08:58.120Z,3.70
2018-08-10T23:11:26.988Z,3.80
2018-08-10T23:13:54.252Z,3.00
2018-08-10T23:16:21.627Z,3.65
2018-08-10T23:18:48.922Z,3.50
2018-08-10T23:21:16.155Z,3.53
2018-08-10T23:23:43.419Z,3.87
2018-08-10T23:26:10.643Z,3.03
2018-08-10T23:28:37.977Z,3.30
2018-08-10T23:31:05.613Z,3.58
2018-08-10T23:33:32.840Z,3.40
2018-08-10T23:36:00.136Z,3.43
2018-08-10T23:38:27.475Z,3.72
2018-08-10T23:40:54.804Z,3.90
2018-08-10T23:43:22.064Z,3.70
2018-08-10T23:45:49.340Z,3.80
2018-08-10T23:48:16.739Z,3.70
2018-08-10T23:50:44.004Z,3.45
2018-08-10T23:53:11.301Z,3.60
2018-08-10T23:55:38.616Z,3.62
2018-08-10T23:58:06.010Z,4.50
